createdAt,value
2023-05-17T00:00:56.619Z,25.38
2023-05-17T00:01:56.667Z,25.39
2023-05-17T00:02:56.698Z,25.38
2023-05-17T00:03:56.752Z,25.36
2023-05-17T00:04:56.741Z,25.41
2023-05-17T00:05:56.786Z,25.38
2023-05-17T00:06:56.756Z,25.38
2023-05-17T00:07:56.774Z,25.36
2023-05-17T00:08:56.802Z,25.36
2023-05-17T00:09:56.839Z,25.36
2023-05-17T00:10:56.880Z,25.36
2023-05-17T00:11:57.010Z,25.36
2023-05-17T00:12:56.934Z,25.36
2023-05-17T00:13:56.996Z,25.36
2023-05-17T00:14:57.004Z,25.35
2023-05-17T00:15:57.031Z,25.35
2023-05-17T00:16:57.056Z,25.36
2023-05-17T00:17:57.353Z,25.35
2023-05-17T00:18:57.235Z,25.35
2023-05-17T00:19:57.216Z,25.35
2023-05-17T00:20:57.190Z,25.35
2023-05-17T00:21:57.214Z,25.33
2023-05-17T00:22:57.248Z,25.35
2023-05-17T00:23:57.271Z,25.33
2023-05-17T00:24:57.295Z,25.33
2023-05-17T00:25:57.317Z,25.33
2023-05-17T00:26:57.343Z,25.35
2023-05-17T00:27:57.476Z,25.32
2023-05-17T00:28:57.410Z,25.32
2023-05-17T00:29:57.438Z,25.32
2023-05-17T00:30:57.466Z,25.31
2023-05-17T00:31:57.497Z,25.33
2023-05-17T00:32:57.598Z,25.31
2023-05-17T00:33:57.567Z,25.32
2023-05-17T00:34:57.595Z,25.33
2023-05-17T00:35:57.604Z,25.31
2023-05-17T00:36:57.608Z,25.31
2023-05-17T00:37:57.631Z,25.32
2023-05-17T00:38:57.664Z,25.31
2023-05-17T00:39:57.741Z,25.35
2023-05-17T00:40:57.715Z,25.32
2023-05-17T00:41:57.736Z,25.31
2023-05-17T00:42:57.745Z,25.33
2023-05-17T00:43:57.911Z,25.33
2023-05-17T00:44:57.792Z,25.32
2023-05-17T00:45:58.587Z,25.29
2023-05-17T00:46:57.851Z,25.31
2023-05-17T00:47:58.007Z,25.31
2023-05-17T00:48:57.926Z,25.32
2023-05-17T00:49:57.948Z,25.32
2023-05-17T00:50:57.967Z,25.32
2023-05-17T00:51:57.965Z,25.32
2023-05-17T00:52:58.013Z,25.29
2023-05-17T00:53:58.047Z,25.32
2023-05-17T00:54:58.081Z,25.35
2023-05-17T00:55:58.137Z,25.33
2023-05-17T00:56:58.145Z,25.33
2023-05-17T00:57:58.181Z,25.33
2023-05-17T00:59:05.195Z,25.33
2023-05-17T00:59:58.206Z,25.33
2023-05-17T01:00:58.234Z,25.33
2023-05-17T01:01:58.212Z,25.33
2023-05-17T01:02:58.251Z,25.32
2023-05-17T01:03:58.270Z,25.31
2023-05-17T01:04:58.261Z,25.32
2023-05-17T01:05:58.169Z,25.32
2023-05-17T01:06:58.154Z,25.31
2023-05-17T01:07:58.157Z,25.32
2023-05-17T01:08:58.168Z,25.32
2023-05-17T01:09:58.143Z,25.29
2023-05-17T01:10:58.206Z,25.31
2023-05-17T01:11:58.154Z,25.32
2023-05-17T01:12:58.191Z,25.31
2023-05-17T01:13:58.208Z,25.32
2023-05-17T01:14:58.274Z,25.32
2023-05-17T01:15:58.295Z,25.32
2023-05-17T01:16:58.313Z,25.32
2023-05-17T01:17:58.418Z,25.31
2023-05-17T01:18:58.539Z,25.31
2023-05-17T01:19:58.583Z,25.31
2023-05-17T01:20:58.420Z,25.33
2023-05-17T01:21:58.436Z,25.31
2023-05-17T01:22:58.462Z,25.32
2023-05-17T01:23:58.498Z,25.32
2023-05-17T01:24:58.534Z,25.32
2023-05-17T01:25:58.567Z,25.31
2023-05-17T01:26:58.567Z,25.32
2023-05-17T01:27:58.586Z,25.29
2023-05-17T01:28:58.587Z,25.31
2023-05-17T01:29:58.592Z,25.32
2023-05-17T01:30:58.713Z,25.32
2023-05-17T01:31:58.616Z,25.29
2023-05-17T01:32:58.653Z,25.31
2023-05-17T01:33:58.768Z,25.32
2023-05-17T01:34:58.654Z,25.32
2023-05-17T01:35:58.682Z,25.35
2023-05-17T01:36:58.733Z,25.33
2023-05-17T01:37:58.753Z,25.32
2023-05-17T01:38:58.768Z,25.32
2023-05-17T01:39:58.774Z,25.33
2023-05-17T01:40:58.799Z,25.33
2023-05-17T01:41:58.822Z,25.33
2023-05-17T01:42:58.852Z,25.35
2023-05-17T01:43:58.894Z,25.32
2023-05-17T01:44:58.925Z,25.33
2023-05-17T01:45:58.937Z,25.32
2023-05-17T01:46:59.069Z,25.33
2023-05-17T01:47:59.048Z,25.31
2023-05-17T01:48:59.007Z,25.32
2023-05-17T01:49:59.030Z,25.33
2023-05-17T01:50:59.038Z,25.32
2023-05-17T01:51:59.064Z,25.33
2023-05-17T01:52:59.076Z,25.33
2023-05-17T01:53:59.106Z,25.35
2023-05-17T01:54:59.131Z,25.35
2023-05-17T01:55:59.153Z,25.33
2023-05-17T01:56:59.157Z,25.33
2023-05-17T01:57:59.189Z,25.35
2023-05-17T01:58:59.243Z,25.36
2023-05-17T01:59:59.237Z,25.33
2023-05-17T02:00:59.268Z,25.35
2023-05-17T02:01:59.291Z,25.38
2023-05-17T02:02:59.485Z,25.31
2023-05-17T02:03:59.341Z,25.36
2023-05-17T02:04:59.379Z,25.36
2023-05-17T02:05:59.329Z,25.36
2023-05-17T02:06:59.337Z,25.36
2023-05-17T02:07:59.360Z,25.35
2023-05-17T02:08:59.369Z,25.33
2023-05-17T02:09:59.390Z,25.33
2023-05-17T02:10:59.409Z,25.35
2023-05-17T02:11:59.441Z,25.36
2023-05-17T02:12:59.442Z,25.35
2023-05-17T02:13:59.475Z,25.36
2023-05-17T02:14:59.511Z,25.35
2023-05-17T02:15:59.522Z,25.36
2023-05-17T02:16:59.547Z,25.36
2023-05-17T02:17:59.653Z,25.33
2023-05-17T02:18:59.726Z,25.36
2023-05-17T02:19:59.624Z,25.36
2023-05-17T02:20:59.654Z,25.35
2023-05-17T02:21:59.677Z,25.35
2023-05-17T02:22:59.708Z,25.36
2023-05-17T02:23:59.728Z,25.38
2023-05-17T02:24:59.754Z,25.35
2023-05-17T02:25:59.760Z,25.35
2023-05-17T02:26:59.792Z,25.35
2023-05-17T02:27:59.819Z,25.33
2023-05-17T02:28:59.853Z,25.36
2023-05-17T02:29:59.858Z,25.35
2023-05-17T02:30:59.882Z,25.36
2023-05-17T02:31:59.908Z,25.36
2023-05-17T02:33:00.672Z,25.36
2023-05-17T02:34:00.113Z,25.36
2023-05-17T02:35:00.067Z,25.35
2023-05-17T02:35:59.995Z,25.35
2023-05-17T02:37:00.037Z,25.36
2023-05-17T02:38:00.074Z,25.33
2023-05-17T02:39:00.051Z,25.33
2023-05-17T02:40:00.049Z,25.36
2023-05-17T02:41:00.091Z,25.33
2023-05-17T02:42:00.123Z,25.33
2023-05-17T02:43:00.131Z,25.35
2023-05-17T02:44:00.157Z,25.36
2023-05-17T02:45:00.186Z,25.35
2023-05-17T02:46:00.205Z,25.33
2023-05-17T02:47:00.258Z,25.35
2023-05-17T02:48:00.268Z,25.35
2023-05-17T02:49:00.275Z,25.35
2023-05-17T02:50:00.300Z,25.33
2023-05-17T02:51:00.623Z,25.33
2023-05-17T02:52:00.389Z,25.35
2023-05-17T02:53:00.388Z,25.32
2023-05-17T02:54:00.412Z,25.32
2023-05-17T02:55:00.457Z,25.33
2023-05-17T02:56:00.508Z,25.32
2023-05-17T02:57:00.486Z,25.33
2023-05-17T02:58:00.507Z,25.33
2023-05-17T02:59:00.543Z,25.32
2023-05-17T03:00:00.589Z,25.31
2023-05-17T03:01:00.579Z,25.31
2023-05-17T03:02:00.609Z,25.32
2023-05-17T03:03:00.722Z,25.31
2023-05-17T03:04:00.848Z,25.31
2023-05-17T03:05:00.655Z,25.32
2023-05-17T03:06:00.687Z,25.33
2023-05-17T03:07:00.807Z,25.31
2023-05-17T03:08:00.721Z,25.33
2023-05-17T03:09:00.752Z,25.32
2023-05-17T03:10:00.766Z,25.31
2023-05-17T03:11:00.800Z,25.33
2023-05-17T03:12:00.828Z,25.32
2023-05-17T03:13:00.837Z,25.33
2023-05-17T03:14:00.831Z,25.33
2023-05-17T03:15:00.835Z,25.35
2023-05-17T03:16:00.853Z,25.31
2023-05-17T03:17:00.859Z,25.35
2023-05-17T03:18:01.019Z,25.32
2023-05-17T03:19:01.108Z,25.32
2023-05-17T03:20:00.920Z,25.33
2023-05-17T03:21:00.951Z,25.35
2023-05-17T03:22:00.988Z,25.32
2023-05-17T03:23:01.010Z,25.31
2023-05-17T03:24:01.032Z,25.32
2023-05-17T03:25:01.057Z,25.33
2023-05-17T03:26:01.102Z,25.32
2023-05-17T03:27:01.127Z,25.32
2023-05-17T03:28:01.153Z,25.32
2023-05-17T03:29:01.169Z,25.32
2023-05-17T03:30:01.188Z,25.32
2023-05-17T03:31:01.234Z,25.31
2023-05-17T03:32:01.192Z,25.31
2023-05-17T03:33:01.270Z,25.29
2023-05-17T03:34:01.405Z,25.29
2023-05-17T03:35:01.248Z,25.35
2023-05-17T03:36:01.255Z,25.32
2023-05-17T03:37:01.286Z,25.29
2023-05-17T03:38:01.302Z,25.31
2023-05-17T03:39:01.554Z,25.32
2023-05-17T03:40:01.363Z,25.31
2023-05-17T03:41:01.431Z,25.31
2023-05-17T03:42:01.412Z,25.32
2023-05-17T03:43:01.480Z,25.32
2023-05-17T03:44:01.482Z,25.29
2023-05-17T03:45:01.493Z,25.33
2023-05-17T03:46:01.531Z,25.32
2023-05-17T03:47:01.557Z,25.29
2023-05-17T03:48:01.606Z,25.32
2023-05-17T03:49:01.668Z,25.31
2023-05-17T03:50:01.639Z,25.32
2023-05-17T03:51:01.652Z,25.33
2023-05-17T03:52:01.678Z,25.32
2023-05-17T03:53:01.685Z,25.29
2023-05-17T03:54:01.721Z,25.31
2023-05-17T03:55:01.736Z,25.32
2023-05-17T03:56:01.738Z,25.32
2023-05-17T03:57:01.768Z,25.33
2023-05-17T03:58:01.785Z,25.32
2023-05-17T03:59:01.812Z,25.33
2023-05-17T04:00:01.856Z,25.33
2023-05-17T04:01:01.869Z,25.32
2023-05-17T04:02:01.894Z,25.31
2023-05-17T04:03:01.984Z,25.29
2023-05-17T04:04:01.970Z,25.31
2023-05-17T04:05:02.009Z,25.31
2023-05-17T04:06:01.960Z,25.32
2023-05-17T04:07:01.986Z,25.33
2023-05-17T04:08:01.964Z,25.31
2023-05-17T04:09:01.958Z,25.32
2023-05-17T04:10:02.031Z,25.33
2023-05-17T04:11:01.993Z,25.32
2023-05-17T04:12:01.963Z,25.32
2023-05-17T04:13:01.999Z,25.32
2023-05-17T04:14:01.979Z,25.32
2023-05-17T04:15:02.010Z,25.33
2023-05-17T04:16:02.037Z,25.31
2023-05-17T04:17:02.061Z,25.32
2023-05-17T04:18:02.148Z,25.32
2023-05-17T04:19:02.238Z,25.32
2023-05-17T04:20:02.245Z,25.32
2023-05-17T04:21:02.211Z,25.31
2023-05-17T04:22:02.204Z,25.32
2023-05-17T04:23:02.210Z,25.31
2023-05-17T04:24:02.211Z,25.31
2023-05-17T04:25:02.250Z,25.31
2023-05-17T04:26:02.271Z,25.31
2023-05-17T04:27:03.593Z,25.29
2023-05-17T04:28:02.321Z,25.31
2023-05-17T04:29:02.361Z,25.32
2023-05-17T04:30:02.393Z,25.32
2023-05-17T04:31:02.392Z,25.32
2023-05-17T04:32:02.411Z,25.29
2023-05-17T04:33:02.488Z,25.28
2023-05-17T04:34:02.580Z,25.29
2023-05-17T04:35:02.477Z,25.31
2023-05-17T04:36:02.517Z,25.28
2023-05-17T04:37:02.538Z,25.31
2023-05-17T04:38:02.562Z,25.32
2023-05-17T04:39:02.592Z,25.31
2023-05-17T04:40:02.632Z,25.29
2023-05-17T04:41:02.661Z,25.31
2023-05-17T04:42:02.676Z,25.32
2023-05-17T04:43:02.837Z,25.31
2023-05-17T04:44:02.717Z,25.31
2023-05-17T04:45:02.720Z,25.32
2023-05-17T04:46:02.778Z,25.32
2023-05-17T04:47:02.798Z,25.32
2023-05-17T04:48:02.916Z,25.32
2023-05-17T04:49:02.903Z,25.33
2023-05-17T04:50:02.875Z,25.32
2023-05-17T04:51:02.906Z,25.32
2023-05-17T04:52:05.397Z,25.32
2023-05-17T04:53:02.917Z,25.32
2023-05-17T04:54:02.905Z,25.32
2023-05-17T04:55:02.902Z,25.32
2023-05-17T04:56:02.893Z,25.32
2023-05-17T04:57:02.895Z,25.33
2023-05-17T04:58:02.883Z,25.31
2023-05-17T04:59:03.041Z,25.32
2023-05-17T05:00:02.870Z,25.33
2023-05-17T05:01:02.859Z,25.33
2023-05-17T05:02:02.858Z,25.31
2023-05-17T05:03:02.949Z,25.32
2023-05-17T05:04:02.992Z,25.32
2023-05-17T05:05:02.903Z,25.32
2023-05-17T05:06:02.833Z,25.31
2023-05-17T05:07:02.830Z,25.33
2023-05-17T05:08:02.823Z,25.31
2023-05-17T05:09:02.818Z,25.32
2023-05-17T05:10:03.684Z,25.32
2023-05-17T05:11:02.818Z,25.31
2023-05-17T05:12:02.797Z,25.29
2023-05-17T05:13:03.185Z,25.31
2023-05-17T05:14:02.779Z,25.32
2023-05-17T05:15:02.935Z,25.31
2023-05-17T05:16:02.777Z,25.31
2023-05-17T05:17:02.770Z,25.29
2023-05-17T05:18:03.298Z,25.32
2023-05-17T05:19:02.986Z,25.32
2023-05-17T05:20:02.793Z,25.31
2023-05-17T05:21:02.738Z,25.33
2023-05-17T05:22:02.749Z,25.33
2023-05-17T05:23:03.193Z,25.33
2023-05-17T05:24:02.719Z,25.31
2023-05-17T05:25:03.224Z,25.33
2023-05-17T05:26:02.710Z,25.33
2023-05-17T05:27:04.377Z,25.35
2023-05-17T05:28:02.697Z,25.35
2023-05-17T05:29:02.688Z,25.35
2023-05-17T05:30:02.693Z,25.36
2023-05-17T05:31:02.790Z,25.35
2023-05-17T05:32:02.663Z,25.38
2023-05-17T05:33:02.855Z,25.38
2023-05-17T05:34:02.828Z,25.36
2023-05-17T05:35:02.649Z,25.41
2023-05-17T05:36:02.632Z,25.36
2023-05-17T05:37:02.634Z,25.39
2023-05-17T05:38:02.660Z,25.39
2023-05-17T05:39:02.637Z,25.38
2023-05-17T05:40:02.613Z,25.41
2023-05-17T05:41:02.601Z,25.41
2023-05-17T05:42:02.639Z,25.43
2023-05-17T05:43:02.758Z,25.42
2023-05-17T05:44:02.583Z,25.43
2023-05-17T05:45:02.582Z,25.45
2023-05-17T05:46:02.574Z,25.46
2023-05-17T05:47:02.853Z,25.43
2023-05-17T05:48:02.857Z,25.46
2023-05-17T05:49:02.767Z,25.48
2023-05-17T05:50:02.538Z,25.46
2023-05-17T05:51:02.529Z,25.46
2023-05-17T05:52:02.524Z,25.46
2023-05-17T05:53:17.188Z,25.49
2023-05-17T05:54:09.933Z,25.48
2023-05-17T05:55:10.114Z,25.52
2023-05-17T05:56:02.526Z,25.49
2023-05-17T05:57:02.514Z,25.49
2023-05-17T05:58:02.487Z,25.53
2023-05-17T05:59:02.478Z,25.53
2023-05-17T06:00:02.504Z,25.56
2023-05-17T06:01:05.338Z,25.58
2023-05-17T06:02:02.450Z,25.58
2023-05-17T06:03:03.163Z,25.58
2023-05-17T06:04:18.043Z,25.58
2023-05-17T06:05:02.443Z,25.60
2023-05-17T06:06:09.885Z,25.62
2023-05-17T06:07:02.459Z,25.63
2023-05-17T06:08:02.720Z,25.62
2023-05-17T06:09:02.427Z,25.65
2023-05-17T06:10:02.399Z,25.63
2023-05-17T06:11:03.388Z,25.66
2023-05-17T06:12:02.427Z,25.66
2023-05-17T06:13:02.719Z,25.65
2023-05-17T06:14:02.388Z,25.69
2023-05-17T06:15:02.386Z,25.68
2023-05-17T06:16:09.761Z,25.70
2023-05-17T06:17:02.367Z,25.70
2023-05-17T06:18:02.849Z,25.68
2023-05-17T06:19:02.565Z,25.72
2023-05-17T06:20:02.414Z,25.72
2023-05-17T06:21:02.355Z,25.73
2023-05-17T06:22:02.371Z,25.72
2023-05-17T06:23:02.722Z,25.75
2023-05-17T06:24:04.943Z,25.75
2023-05-17T06:25:02.324Z,25.76
2023-05-17T06:26:02.532Z,25.76
2023-05-17T06:27:02.298Z,25.77
2023-05-17T06:28:03.030Z,25.77
2023-05-17T06:29:02.307Z,25.77
2023-05-17T06:30:04.851Z,25.80
2023-05-17T06:31:02.718Z,25.81
2023-05-17T06:32:02.281Z,25.80
2023-05-17T06:33:02.834Z,25.83
2023-05-17T06:34:02.362Z,25.84
2023-05-17T06:35:02.450Z,25.84
2023-05-17T06:37:01.245Z,25.84
2023-05-17T06:38:02.727Z,25.86
2023-05-17T06:39:02.365Z,25.86
2023-05-17T06:40:10.319Z,25.86
2023-05-17T06:41:02.419Z,25.86
2023-05-17T06:42:02.410Z,25.89
2023-05-17T06:43:02.721Z,25.90
2023-05-17T06:44:02.437Z,25.91
2023-05-17T06:45:05.566Z,25.91
2023-05-17T06:46:02.720Z,25.90
2023-05-17T06:47:02.436Z,25.93
2023-05-17T06:48:02.813Z,25.91
2023-05-17T06:49:02.678Z,25.91
2023-05-17T06:50:02.344Z,25.87
2023-05-17T06:51:09.821Z,25.89
2023-05-17T06:52:09.741Z,25.87
2023-05-17T06:53:02.754Z,25.87
2023-05-17T06:54:09.765Z,25.87
2023-05-17T06:55:02.375Z,25.86
2023-05-17T06:57:17.908Z,25.86
2023-05-17T06:58:05.489Z,25.86
2023-05-17T06:59:03.137Z,25.84
2023-05-17T07:00:02.270Z,25.84
2023-05-17T07:01:09.678Z,25.83
2023-05-17T07:02:05.461Z,25.84
2023-05-17T07:03:10.217Z,25.84
2023-05-17T07:04:02.365Z,25.80
2023-05-17T07:06:34.297Z,25.80
2023-05-17T07:07:02.781Z,25.81
2023-05-17T07:08:05.552Z,25.80
2023-05-17T07:09:03.198Z,25.79
2023-05-17T07:10:02.216Z,25.79
2023-05-17T07:11:02.191Z,25.80
2023-05-17T07:12:02.176Z,25.77
2023-05-17T07:13:02.695Z,25.77
2023-05-17T07:14:03.168Z,25.76
2023-05-17T07:15:09.576Z,25.75
2023-05-17T07:16:02.168Z,25.76
2023-05-17T07:17:02.167Z,25.73
2023-05-17T07:18:02.444Z,25.73
2023-05-17T07:19:02.320Z,25.70
2023-05-17T07:20:02.399Z,25.75
2023-05-17T07:21:02.146Z,25.70
2023-05-17T07:22:02.516Z,25.73
2023-05-17T07:23:02.120Z,25.75
2023-05-17T07:24:02.396Z,25.72
2023-05-17T07:25:02.747Z,25.72
2023-05-17T07:26:02.093Z,25.70
2023-05-17T07:27:03.085Z,25.70
2023-05-17T07:28:02.122Z,25.70
2023-05-17T07:29:02.105Z,25.72
2023-05-17T07:30:02.096Z,25.68
2023-05-17T07:31:03.091Z,25.66
2023-05-17T07:32:02.058Z,25.68
2023-05-17T07:33:02.365Z,25.68
2023-05-17T07:34:02.090Z,25.66
2023-05-17T07:35:03.061Z,25.68
2023-05-17T07:36:03.282Z,25.68
2023-05-17T07:37:02.027Z,25.63
2023-05-17T07:38:02.207Z,25.65
2023-05-17T07:39:02.033Z,25.63
2023-05-17T07:40:02.264Z,25.66
2023-05-17T07:41:02.002Z,25.63
2023-05-17T07:43:01.260Z,25.68
2023-05-17T07:44:02.008Z,25.69
2023-05-17T07:45:01.972Z,25.69
2023-05-17T07:46:09.342Z,25.70
2023-05-17T07:47:02.049Z,25.73
2023-05-17T07:48:05.618Z,25.75
2023-05-17T07:49:02.086Z,25.76
2023-05-17T07:50:01.945Z,25.77
2023-05-17T07:51:01.940Z,25.81
2023-05-17T07:52:01.923Z,25.79
2023-05-17T07:53:02.733Z,25.84
2023-05-17T07:54:02.936Z,25.83
2023-05-17T07:55:02.119Z,25.87
2023-05-17T07:56:01.892Z,25.84
2023-05-17T07:57:01.888Z,25.83
2023-05-17T07:58:02.263Z,25.87
2023-05-17T08:00:01.902Z,25.81
2023-05-17T08:04:02.899Z,25.80
2023-05-17T08:05:02.868Z,25.77
2023-05-17T08:06:01.868Z,25.80
2023-05-17T08:07:01.831Z,25.77
2023-05-17T08:08:02.269Z,25.76
2023-05-17T08:09:01.816Z,25.76
2023-05-17T08:10:02.312Z,25.77
2023-05-17T08:11:01.803Z,25.75
2023-05-17T08:12:01.825Z,25.75
2023-05-17T08:13:02.291Z,25.73
2023-05-17T08:14:01.786Z,25.75
2023-05-17T08:15:01.804Z,25.76
2023-05-17T08:16:12.721Z,25.70
2023-05-17T08:17:01.771Z,25.73
2023-05-17T08:18:04.380Z,25.72
2023-05-17T08:19:01.850Z,25.73
2023-05-17T08:20:02.793Z,25.72
2023-05-17T08:21:01.736Z,25.72
2023-05-17T08:22:01.729Z,25.72
2023-05-17T08:23:01.765Z,25.72
2023-05-17T08:24:03.876Z,25.69
2023-05-17T08:25:01.713Z,25.70
2023-05-17T08:26:01.850Z,25.69
2023-05-17T08:27:01.722Z,25.68
2023-05-17T08:28:04.975Z,25.69
2023-05-17T08:29:01.787Z,25.69
2023-05-17T08:30:01.721Z,25.69
2023-05-17T08:31:01.681Z,25.69
2023-05-17T08:32:09.063Z,25.69
2023-05-17T08:33:05.128Z,25.69
2023-05-17T08:34:01.742Z,25.69
2023-05-17T08:35:02.669Z,25.69
2023-05-17T08:36:01.658Z,25.69
2023-05-17T08:37:01.802Z,25.69
2023-05-17T08:38:01.636Z,25.68
2023-05-17T08:39:01.708Z,25.69
2023-05-17T08:40:01.647Z,25.69
2023-05-17T08:41:01.627Z,25.69
2023-05-17T08:42:01.885Z,25.68
2023-05-17T08:43:01.775Z,25.69
2023-05-17T08:44:01.790Z,25.69
2023-05-17T08:45:01.580Z,25.70
2023-05-17T08:46:01.813Z,25.69
2023-05-17T08:47:01.577Z,25.68
2023-05-17T08:48:01.865Z,25.70
2023-05-17T08:49:01.651Z,25.69
2023-05-17T08:50:01.612Z,25.69
2023-05-17T08:51:02.769Z,25.69
2023-05-17T08:52:01.822Z,25.69
2023-05-17T08:53:01.574Z,25.69
2023-05-17T08:54:01.533Z,25.68
2023-05-17T08:55:01.795Z,25.70
2023-05-17T08:56:01.535Z,25.68
2023-05-17T08:57:01.783Z,25.69
2023-05-17T08:58:02.155Z,25.69
2023-05-17T08:59:01.527Z,25.69
2023-05-17T09:00:01.518Z,25.68
2023-05-17T09:01:01.506Z,25.68
2023-05-17T09:02:01.791Z,25.69
2023-05-17T09:03:01.992Z,25.69
2023-05-17T09:04:02.012Z,25.69
2023-05-17T09:05:01.605Z,25.70
2023-05-17T09:06:01.548Z,25.72
2023-05-17T09:07:01.786Z,25.68
2023-05-17T09:08:01.444Z,25.70
2023-05-17T09:09:01.647Z,25.69
2023-05-17T09:10:01.423Z,25.69
2023-05-17T09:11:02.409Z,25.68
2023-05-17T09:12:01.830Z,25.66
2023-05-17T09:13:01.543Z,25.66
2023-05-17T09:14:01.489Z,25.70
2023-05-17T09:15:01.413Z,25.66
2023-05-17T09:16:01.398Z,25.63
2023-05-17T09:17:01.814Z,25.68
2023-05-17T09:18:02.477Z,25.66
2023-05-17T09:19:09.324Z,25.65
2023-05-17T09:20:02.457Z,25.66
2023-05-17T09:21:01.357Z,25.66
2023-05-17T09:22:01.473Z,25.68
2023-05-17T09:23:01.784Z,25.70
2023-05-17T09:24:08.098Z,25.66
2023-05-17T09:25:01.330Z,25.69
2023-05-17T09:26:01.353Z,25.66
2023-05-17T09:27:01.344Z,25.65
2023-05-17T09:28:01.827Z,25.69
2023-05-17T09:29:01.333Z,25.66
2023-05-17T09:30:01.872Z,25.66
2023-05-17T09:31:01.320Z,25.66
2023-05-17T09:32:01.336Z,25.66
2023-05-17T09:33:01.307Z,25.62
2023-05-17T09:34:01.342Z,25.56
2023-05-17T09:35:01.340Z,25.45
2023-05-17T09:36:01.283Z,25.36
2023-05-17T09:37:01.321Z,25.21
2023-05-17T09:38:01.342Z,25.11
2023-05-17T09:39:01.247Z,25.01
2023-05-17T09:40:01.241Z,24.90
2023-05-17T09:41:01.247Z,24.76
2023-05-17T09:42:01.303Z,24.67
2023-05-17T09:43:01.302Z,24.57
2023-05-17T09:44:01.221Z,24.49
2023-05-17T09:45:01.199Z,24.44
2023-05-17T09:46:01.280Z,24.39
2023-05-17T09:47:01.184Z,24.35
2023-05-17T09:48:04.666Z,24.28
2023-05-17T09:49:01.337Z,24.30
2023-05-17T09:50:01.301Z,24.30
2023-05-17T09:51:02.155Z,24.36
2023-05-17T09:52:01.156Z,24.39
2023-05-17T09:53:01.306Z,24.42
2023-05-17T09:54:01.306Z,24.50
2023-05-17T09:55:01.168Z,24.53
2023-05-17T09:56:01.122Z,24.62
2023-05-17T09:57:01.126Z,24.68
2023-05-17T09:58:01.320Z,24.74
2023-05-17T09:59:01.108Z,24.81
2023-05-17T10:00:01.093Z,24.86
2023-05-17T10:01:01.090Z,24.93
2023-05-17T10:02:01.216Z,24.98
2023-05-17T10:03:01.456Z,25.05
2023-05-17T10:04:01.116Z,25.13
2023-05-17T10:05:00.386Z,25.17
2023-05-17T10:06:01.061Z,25.22
2023-05-17T10:07:01.098Z,25.28
2023-05-17T10:08:01.045Z,25.31
2023-05-17T10:09:01.083Z,25.33
2023-05-17T10:10:01.033Z,25.33
2023-05-17T10:11:01.024Z,25.39
2023-05-17T10:12:01.038Z,25.41
2023-05-17T10:13:01.007Z,25.46
2023-05-17T10:14:01.310Z,25.48
2023-05-17T10:15:01.061Z,25.52
2023-05-17T10:16:01.000Z,25.56
2023-05-17T10:17:01.981Z,25.56
2023-05-17T10:18:01.230Z,25.58
2023-05-17T10:19:01.007Z,25.60
2023-05-17T10:20:01.179Z,25.63
2023-05-17T10:21:00.981Z,25.65
2023-05-17T10:22:11.638Z,25.68
2023-05-17T10:23:00.951Z,25.68
2023-05-17T10:24:00.940Z,25.69
2023-05-17T10:25:01.326Z,25.73
2023-05-17T10:26:00.919Z,25.73
2023-05-17T10:27:00.937Z,25.75
2023-05-17T10:28:00.956Z,25.81
2023-05-17T10:29:00.910Z,25.77
2023-05-17T10:30:01.343Z,25.80
2023-05-17T10:31:00.906Z,25.80
2023-05-17T10:32:00.910Z,25.80
2023-05-17T10:33:01.017Z,25.83
2023-05-17T10:34:00.979Z,25.84
2023-05-17T10:35:11.408Z,25.84
2023-05-17T10:36:00.872Z,25.84
2023-05-17T10:37:00.853Z,25.86
2023-05-17T10:38:01.348Z,25.89
2023-05-17T10:39:04.027Z,25.87
2023-05-17T10:40:00.830Z,25.89
2023-05-17T10:41:02.196Z,25.90
2023-05-17T10:42:13.712Z,25.94
2023-05-17T10:43:00.917Z,25.94
2023-05-17T10:44:00.878Z,25.93
2023-05-17T10:45:01.328Z,25.96
2023-05-17T10:46:00.854Z,25.97
2023-05-17T10:47:00.840Z,25.94
2023-05-17T10:48:01.339Z,25.96
2023-05-17T10:49:01.441Z,25.97
2023-05-17T10:50:00.943Z,25.97
2023-05-17T10:51:04.005Z,25.99
2023-05-17T10:52:00.811Z,25.99
2023-05-17T10:53:00.805Z,26.01
2023-05-17T10:54:02.332Z,26.01
2023-05-17T10:55:16.477Z,26.01
2023-05-17T10:56:00.882Z,26.03
2023-05-17T10:57:00.864Z,26.03
2023-05-17T10:58:00.864Z,26.00
2023-05-17T10:59:00.858Z,26.04
2023-05-17T11:00:00.851Z,26.04
2023-05-17T11:01:00.837Z,26.05
2023-05-17T11:02:00.842Z,26.05
2023-05-17T11:03:00.859Z,26.07
2023-05-17T11:04:00.828Z,26.07
2023-05-17T11:05:00.868Z,26.07
2023-05-17T11:06:00.958Z,26.08
2023-05-17T11:07:02.478Z,26.10
2023-05-17T11:08:00.784Z,26.08
2023-05-17T11:09:01.828Z,26.08
2023-05-17T11:10:00.830Z,26.10
2023-05-17T11:11:00.776Z,26.07
2023-05-17T11:12:00.765Z,26.08
2023-05-17T11:13:00.833Z,26.10
2023-05-17T11:14:00.757Z,26.13
2023-05-17T11:15:00.750Z,26.11
2023-05-17T11:16:00.741Z,26.13
2023-05-17T11:17:00.739Z,26.14
2023-05-17T11:18:00.820Z,26.16
2023-05-17T11:19:01.066Z,26.13
2023-05-17T11:20:00.846Z,26.14
2023-05-17T11:21:00.978Z,26.13
2023-05-17T11:22:00.934Z,26.14
2023-05-17T11:23:00.964Z,26.13
2023-05-17T11:24:01.344Z,26.16
2023-05-17T11:25:01.047Z,26.16
2023-05-17T11:26:09.126Z,26.13
2023-05-17T11:27:01.116Z,26.14
2023-05-17T11:28:01.103Z,26.13
2023-05-17T11:29:01.091Z,26.13
2023-05-17T11:30:01.078Z,26.10
2023-05-17T11:31:01.077Z,26.10
2023-05-17T11:32:01.090Z,26.10
2023-05-17T11:33:01.138Z,26.05
2023-05-17T11:34:01.104Z,26.05
2023-05-17T11:35:01.043Z,26.07
2023-05-17T11:36:01.037Z,26.08
2023-05-17T11:37:01.041Z,26.05
2023-05-17T11:38:01.046Z,26.05
2023-05-17T11:39:08.186Z,26.05
2023-05-17T11:40:01.016Z,26.05
2023-05-17T11:41:01.016Z,26.04
2023-05-17T11:42:01.038Z,26.05
2023-05-17T11:43:00.988Z,26.03
2023-05-17T11:44:00.984Z,26.05
2023-05-17T11:45:00.983Z,26.07
2023-05-17T11:46:00.970Z,26.07
2023-05-17T11:47:00.965Z,26.08
2023-05-17T11:48:01.054Z,26.07
2023-05-17T11:49:00.949Z,26.07
2023-05-17T11:50:00.967Z,26.10
2023-05-17T11:51:02.353Z,26.10
2023-05-17T11:52:00.925Z,26.11
2023-05-17T11:53:00.940Z,26.11
2023-05-17T11:54:00.946Z,26.11
2023-05-17T11:55:00.926Z,26.11
2023-05-17T11:56:00.911Z,26.13
2023-05-17T11:57:00.900Z,26.13
2023-05-17T11:58:00.906Z,26.13
2023-05-17T11:59:00.888Z,26.16
2023-05-17T12:00:01.411Z,26.17
2023-05-17T12:01:00.901Z,26.16
2023-05-17T12:02:00.868Z,26.14
2023-05-17T12:03:00.917Z,26.16
2023-05-17T12:04:00.980Z,26.16
2023-05-17T12:05:01.044Z,26.18
2023-05-17T12:06:00.901Z,26.16
2023-05-17T12:07:00.836Z,26.17
2023-05-17T12:08:00.830Z,26.16
2023-05-17T12:09:00.860Z,26.20
2023-05-17T12:10:00.869Z,26.17
2023-05-17T12:11:00.811Z,26.20
2023-05-17T12:12:00.800Z,26.20
2023-05-17T12:13:00.788Z,26.21
2023-05-17T12:14:00.785Z,26.20
2023-05-17T12:15:00.779Z,26.21
2023-05-17T12:16:00.764Z,26.24
2023-05-17T12:17:00.880Z,26.20
2023-05-17T12:18:00.816Z,26.21
2023-05-17T12:19:00.957Z,26.20
2023-05-17T12:20:00.853Z,26.23
2023-05-17T12:21:00.788Z,26.21
2023-05-17T12:22:00.782Z,26.21
2023-05-17T12:23:00.830Z,26.23
2023-05-17T12:24:00.847Z,26.23
2023-05-17T12:25:00.927Z,26.23
2023-05-17T12:26:00.898Z,26.24
2023-05-17T12:27:00.882Z,26.24
2023-05-17T12:28:00.881Z,26.21
2023-05-17T12:29:00.891Z,26.26
2023-05-17T12:30:00.896Z,26.28
2023-05-17T12:31:00.938Z,26.28
2023-05-17T12:32:00.922Z,26.27
2023-05-17T12:33:01.021Z,26.28
2023-05-17T12:34:01.462Z,26.27
2023-05-17T12:35:00.960Z,26.26
2023-05-17T12:36:00.965Z,26.27
2023-05-17T12:37:00.979Z,26.28
2023-05-17T12:38:01.015Z,26.27
2023-05-17T12:39:01.044Z,26.28
2023-05-17T12:40:01.062Z,26.30
2023-05-17T12:41:01.085Z,26.28
2023-05-17T12:42:01.161Z,26.32
2023-05-17T12:43:01.682Z,26.31
2023-05-17T12:45:00.146Z,26.31
2023-05-17T12:46:03.075Z,26.34
2023-05-17T12:47:01.694Z,26.35
2023-05-17T12:48:01.711Z,26.38
2023-05-17T12:49:01.141Z,26.35
2023-05-17T12:50:01.106Z,26.37
2023-05-17T12:51:01.381Z,26.35
2023-05-17T12:52:01.096Z,26.38
2023-05-17T12:53:01.084Z,26.38
2023-05-17T12:54:02.083Z,26.38
2023-05-17T12:55:01.076Z,26.39
2023-05-17T12:56:01.096Z,26.39
2023-05-17T12:57:01.068Z,26.39
2023-05-17T12:58:01.092Z,26.41
2023-05-17T12:59:01.059Z,26.42
2023-05-17T13:00:01.036Z,26.41
2023-05-17T13:01:01.382Z,26.42
2023-05-17T13:02:01.033Z,26.44